Time;durP1;ratioP1;P1;durP2;ratioP2;P2;SDS_P1;SDS_P2;PMS_P1;PMS_P2;Temp;Humidity;BMP_temperature;BMP_pressure;BME280_temperature;BME280_humidity;BME280_pressure;Samples;Min_cycle;Max_cycle;Signal;HPM_P1;HPM_P2
2021/03/10 00:00:57;;;;;;;22.05;9.05;;;4.70;99.90;;;;;;5123061;27;20047;-89
2021/03/10 00:03:25;;;;;;;19.65;9.30;;;4.70;99.90;;;;;;5125193;27;20533;-90
2021/03/10 00:05:57;;;;;;;21.23;10.13;;;4.70;99.90;;;;;;5124719;27;20043;-88
2021/03/10 00:08:24;;;;;;;;;;;4.70;99.90;;;;;;5127371;27;20047;-89
2021/03/10 00:10:51;;;;;;;19.02;8.93;;;4.70;99.90;;;;;;5125124;27;19919;-88
2021/03/10 00:13:19;;;;;;;19.30;9.55;;;4.70;99.90;;;;;;5127285;27;20073;-89
2021/03/10 00:15:47;;;;;;;19.70;9.52;;;4.60;99.90;;;;;;5109179;27;20051;-88
2021/03/10 00:18:16;;;;;;;18.70;9.63;;;4.60;99.90;;;;;;5125377;27;20047;-90
2021/03/10 00:20:44;;;;;;;20.05;9.63;;;4.50;99.90;;;;;;5112691;27;20047;-89
2021/03/10 00:23:12;;;;;;;18.65;9.55;;;4.50;99.90;;;;;;5117474;27;20415;-89
2021/03/10 00:25:40;;;;;;;18.90;9.68;;;4.50;99.90;;;;;;5118306;27;20055;-89
2021/03/10 00:28:09;;;;;;;23.77;10.65;;;4.50;99.90;;;;;;5118827;27;20380;-89
2021/03/10 00:30:37;;;;;;;19.40;9.40;;;4.60;99.90;;;;;;5101636;27;20349;-88
2021/03/10 00:33:04;;;;;;;20.40;10.02;;;4.60;99.90;;;;;;5118511;27;20074;-89
2021/03/10 00:35:31;;;;;;;16.35;9.20;;;4.60;99.90;;;;;;5117902;27;20047;-89
2021/03/10 00:38:00;;;;;;;17.70;8.65;;;4.60;99.90;;;;;;5118188;27;20066;-89
2021/03/10 00:40:29;;;;;;;17.73;8.80;;;4.50;99.90;;;;;;5100994;27;20043;-88
2021/03/10 00:43:02;;;;;;;19.75;9.30;;;4.50;99.90;;;;;;5101294;27;20467;-89
2021/03/10 00:45:29;;;;;;;19.55;8.82;;;4.40;99.90;;;;;;5100679;27;20460;-89
2021/03/10 00:47:57;;;;;;;19.90;9.82;;;4.40;99.90;;;;;;5100748;27;20391;-88
2021/03/10 00:50:26;;;;;;;20.88;10.45;;;4.50;99.90;;;;;;5100448;27;20050;-90
2021/03/10 00:52:56;;;;;;;17.55;9.38;;;4.50;99.90;;;;;;5101062;27;20467;-89
2021/03/10 00:55:26;;;;;;;21.98;11.13;;;4.50;99.90;;;;;;5117530;28;20066;-90
2021/03/10 00:57:55;;;;;;;20.65;9.63;;;4.50;99.90;;;;;;5100515;28;20055;-90
2021/03/10 01:00:25;;;;;;;20.33;9.95;;;4.60;99.90;;;;;;5111251;27;20046;-90
2021/03/10 01:02:52;;;;;;;19.13;9.73;;;4.60;99.90;;;;;;5109389;28;20046;-88
2021/03/10 01:05:20;;;;;;;19.80;10.35;;;4.70;99.90;;;;;;5113396;28;20049;-89
2021/03/10 01:07:47;;;;;;;21.63;10.68;;;4.60;99.90;;;;;;5121342;28;20055;-88
2021/03/10 01:10:15;;;;;;;22.45;11.30;;;4.50;99.90;;;;;;5102183;28;20066;-91
2021/03/10 01:12:44;;;;;;;21.50;11.45;;;4.60;99.90;;;;;;5117857;28;20059;-89
2021/03/10 01:15:16;;;;;;;24.55;11.40;;;4.50;99.90;;;;;;5100932;28;20043;-89
2021/03/10 01:17:45;;;;;;;21.42;10.75;;;4.60;99.90;;;;;;5100908;28;20051;-89
2021/03/10 01:20:15;;;;;;;21.33;10.75;;;4.50;99.90;;;;;;5109715;28;20043;-90
2021/03/10 01:22:43;;;;;;;20.00;10.52;;;4.40;99.90;;;;;;5123712;28;20074;-89
2021/03/10 01:25:14;;;;;;;23.02;11.88;;;4.30;99.90;;;;;;5101122;28;20419;-89
2021/03/10 01:27:41;;;;;;;22.63;11.48;;;4.50;99.90;;;;;;5102396;27;20373;-90
2021/03/10 01:30:10;;;;;;;19.13;10.32;;;4.40;99.90;;;;;;5104761;27;20046;-90
2021/03/10 01:32:39;;;;;;;21.55;11.48;;;4.30;99.90;;;;;;5120442;27;20055;-89
2021/03/10 01:35:08;;;;;;;;;;;4.30;99.90;;;;;;5105192;27;20046;-89
2021/03/10 01:37:36;;;;;;;14.67;7.57;;;4.30;99.90;;;;;;5104252;27;20275;-89
2021/03/10 01:40:17;;;;;;;26.23;12.48;;;4.30;99.90;;;;;;5106711;27;20295;-88
2021/03/10 01:42:48;;;;;;;24.75;11.82;;;4.10;99.90;;;;;;5120147;27;20047;-89
2021/03/10 01:45:18;;;;;;;21.90;12.15;;;4.00;99.90;;;;;;5121010;27;20047;-89
2021/03/10 01:47:48;;;;;;;25.30;12.82;;;4.00;99.90;;;;;;5120166;27;20047;-95
2021/03/10 01:50:18;;;;;;;22.88;11.82;;;4.00;99.90;;;;;;5104221;27;20043;-93
2021/03/10 01:52:47;;;;;;;26.02;13.05;;;4.00;99.90;;;;;;5105778;27;20102;-96
2021/03/10 01:55:16;;;;;;;26.63;13.07;;;4.10;99.90;;;;;;5108465;27;20058;-95
2021/03/10 01:57:44;;;;;;;29.05;12.75;;;4.10;99.90;;;;;;5109330;27;20054;-96
2021/03/10 02:00:12;;;;;;;26.35;13.45;;;4.10;99.90;;;;;;5104151;27;20046;-95
2021/03/10 02:02:43;;;;;;;24.73;11.75;;;4.10;99.90;;;;;;5122362;27;20051;-95
2021/03/10 02:05:16;;;;;;;23.77;11.63;;;4.00;99.90;;;;;;5105620;27;20047;-96
2021/03/10 02:07:59;;;;;;;26.00;12.93;;;3.90;99.90;;;;;;5101754;28;20506;-96
2021/03/10 02:10:41;;;;;;;27.83;12.18;;;3.70;99.90;;;;;;5119152;28;20051;-96
2021/03/10 02:13:15;;;;;;;26.02;13.45;;;3.80;99.90;;;;;;5102255;28;20058;-96
2021/03/10 02:15:52;;;;;;;26.90;12.57;;;3.80;99.90;;;;;;5118175;28;20052;-95
2021/03/10 02:18:26;;;;;;;26.27;12.63;;;3.70;99.90;;;;;;5102351;28;20051;-96
2021/03/10 02:20:58;;;;;;;29.43;13.27;;;3.80;99.90;;;;;;5119266;28;20048;-96
2021/03/10 02:23:55;;;;;;;27.17;13.50;;;3.80;99.90;;;;;;5102393;28;20129;-96
2021/03/10 02:26:32;;;;;;;24.98;12.63;;;3.70;99.90;;;;;;5097251;28;20063;-95
2021/03/10 02:29:05;;;;;;;25.15;13.18;;;3.70;99.90;;;;;;5101761;28;20055;-96
2021/03/10 02:31:36;;;;;;;25.60;12.87;;;3.60;99.90;;;;;;5098437;28;20058;-94
2021/03/10 02:34:06;;;;;;;31.20;14.27;;;3.60;99.90;;;;;;5082348;28;20523;-95
2021/03/10 02:36:34;;;;;;;24.73;12.10;;;3.50;99.90;;;;;;5098128;28;20082;-95
2021/03/10 02:39:04;;;;;;;31.50;13.73;;;3.50;99.90;;;;;;5081064;28;20040;-94
2021/03/10 02:41:33;;;;;;;26.80;13.13;;;3.50;99.90;;;;;;5081029;28;20289;-95
2021/03/10 02:44:03;;;;;;;30.33;13.18;;;3.40;99.90;;;;;;5100004;28;20052;-94
2021/03/10 02:46:31;;;;;;;28.10;13.77;;;3.40;99.90;;;;;;5081792;28;20385;-95
2021/03/10 02:48:59;;;;;;;28.05;13.85;;;3.30;99.90;;;;;;5097642;28;20048;-95
2021/03/10 02:51:28;;;;;;;23.02;12.50;;;3.30;99.90;;;;;;5098957;28;20059;-94
2021/03/10 02:53:56;;;;;;;25.83;13.13;;;3.30;99.90;;;;;;5097455;28;20063;-94
2021/03/10 02:56:24;;;;;;;27.88;14.02;;;3.30;99.90;;;;;;5082889;28;20056;-94
2021/03/10 02:58:52;;;;;;;27.13;12.93;;;3.30;99.90;;;;;;5082076;28;20048;-94
2021/03/10 03:01:23;;;;;;;29.95;14.18;;;3.50;99.90;;;;;;5098647;28;20063;-95
2021/03/10 03:03:50;;;;;;;25.20;12.25;;;3.50;99.90;;;;;;5098208;28;20400;-95
2021/03/10 03:06:19;;;;;;;24.58;12.88;;;3.40;99.90;;;;;;5096944;28;20059;-93
2021/03/10 03:08:49;;;;;;;30.08;14.35;;;3.40;99.90;;;;;;5097502;28;20048;-94
2021/03/10 03:11:17;;;;;;;31.17;14.27;;;3.50;99.90;;;;;;5082172;28;20051;-94
2021/03/10 03:13:44;;;;;;;28.67;14.32;;;3.60;99.90;;;;;;5086543;27;20059;-90
2021/03/10 03:16:11;;;;;;;27.60;13.48;;;3.60;99.90;;;;;;5142323;27;20050;-93
2021/03/10 03:18:40;;;;;;;27.38;14.05;;;3.60;99.90;;;;;;5123199;27;20391;-94
2021/03/10 03:21:08;;;;;;;32.20;14.77;;;3.70;99.90;;;;;;5128028;27;20055;-94
2021/03/10 03:23:40;;;;;;;28.00;14.15;;;3.70;99.90;;;;;;5101439;28;20043;-94
2021/03/10 03:26:17;;;;;;;30.43;14.63;;;3.70;99.90;;;;;;5118851;28;20058;-94
2021/03/10 03:28:46;;;;;;;28.92;14.73;;;3.70;99.90;;;;;;5122251;28;20067;-94
2021/03/10 03:31:17;;;;;;;33.63;15.15;;;3.70;99.90;;;;;;5101227;28;20051;-95
2021/03/10 03:33:47;;;;;;;31.20;14.35;;;3.90;99.90;;;;;;5102583;27;20051;-94
2021/03/10 03:36:15;;;;;;;33.92;15.95;;;4.00;99.90;;;;;;5081938;28;20048;-95
2021/03/10 03:38:45;;;;;;;26.47;13.93;;;3.90;99.90;;;;;;5082134;28;20051;-94
2021/03/10 03:41:12;;;;;;;31.58;15.65;;;3.80;99.90;;;;;;5065420;28;20063;-95
2021/03/10 03:43:40;;;;;;;31.25;15.90;;;3.80;99.90;;;;;;5082301;28;20392;-94
2021/03/10 03:46:07;;;;;;;37.25;15.27;;;3.80;99.90;;;;;;5082473;28;20079;-94
2021/03/10 03:48:37;;;;;;;31.40;14.43;;;3.80;99.90;;;;;;5100650;28;20499;-94
2021/03/10 03:51:26;;;;;;;32.13;15.15;;;3.80;99.90;;;;;;5100198;28;20490;-93
2021/03/10 03:53:58;;;;;;;31.38;15.82;;;3.90;99.90;;;;;;5101507;28;20051;-94
2021/03/10 03:56:26;;;;;;;28.20;15.25;;;3.80;99.90;;;;;;5115834;28;20058;-94
2021/03/10 03:58:55;;;;;;;32.08;15.52;;;3.90;99.90;;;;;;5117781;28;20044;-93
2021/03/10 04:01:23;;;;;;;32.25;15.43;;;3.90;99.90;;;;;;5101888;28;20503;-95
2021/03/10 04:03:54;;;;;;;32.10;15.77;;;3.90;99.90;;;;;;5102364;28;20058;-93
2021/03/10 04:06:22;;;;;;;36.38;16.25;;;3.90;99.90;;;;;;5117930;28;20342;-95
2021/03/10 04:08:52;;;;;;;29.58;15.32;;;3.90;99.90;;;;;;5101182;28;20058;-95
2021/03/10 04:11:19;;;;;;;30.35;15.75;;;3.80;99.90;;;;;;5100360;28;20071;-95
2021/03/10 04:13:50;;;;;;;31.23;15.95;;;3.80;99.90;;;;;;5101494;28;20052;-94
2021/03/10 04:16:17;;;;;;;34.67;15.75;;;3.80;99.90;;;;;;5119303;28;20066;-93
2021/03/10 04:18:45;;;;;;;35.33;16.88;;;3.80;99.90;;;;;;5122295;28;20051;-95
2021/03/10 04:21:12;;;;;;;31.60;15.98;;;3.80;99.90;;;;;;5120158;28;20487;-95
2021/03/10 04:23:41;;;;;;;33.92;15.73;;;3.70;99.90;;;;;;5102341;28;20074;-94
2021/03/10 04:26:08;;;;;;;37.70;16.95;;;3.60;99.90;;;;;;5102867;28;20055;-94
2021/03/10 04:28:38;;;;;;;30.17;14.95;;;3.60;99.90;;;;;;5099711;28;20052;-94
2021/03/10 04:31:05;;;;;;;32.55;15.20;;;3.60;99.90;;;;;;5116790;28;20048;-94
2021/03/10 04:33:32;;;;;;;29.17;15.13;;;3.60;99.90;;;;;;5102419;28;20047;-93
2021/03/10 04:35:59;;;;;;;29.50;14.60;;;3.60;99.90;;;;;;5126418;28;20060;-94
2021/03/10 04:38:28;;;;;;;31.83;15.85;;;3.70;99.90;;;;;;5134608;28;20044;-94
2021/03/10 04:40:57;;;;;;;34.38;16.98;;;3.90;99.90;;;;;;5110633;28;20356;-93
2021/03/10 04:43:24;;;;;;;;;;;3.90;99.90;;;;;;5102285;28;20063;-95
2021/03/10 04:45:51;;;;;;;31.83;14.52;;;3.80;99.90;;;;;;5100713;28;19930;-94
2021/03/10 04:48:19;;;;;;;31.70;15.47;;;3.80;99.90;;;;;;5100171;28;20051;-96
2021/03/10 04:50:48;;;;;;;30.60;15.48;;;3.70;99.90;;;;;;5116842;28;20063;-95
2021/03/10 04:53:19;;;;;;;31.38;15.00;;;3.80;99.90;;;;;;5099454;28;20357;-95
2021/03/10 04:55:46;;;;;;;35.60;17.00;;;3.90;99.90;;;;;;5099237;28;20055;-94
2021/03/10 04:58:15;;;;;;;32.40;15.93;;;3.80;99.90;;;;;;5115952;28;20427;-96
2021/03/10 05:00:45;;;;;;;33.33;16.30;;;3.90;99.90;;;;;;5099693;28;20044;-95
2021/03/10 05:03:13;;;;;;;32.72;15.07;;;3.90;99.90;;;;;;5100082;28;20058;-94
2021/03/10 05:05:41;;;;;;;32.08;15.57;;;3.80;99.90;;;;;;5100486;28;20055;-95
2021/03/10 05:08:08;;;;;;;33.72;15.77;;;3.80;99.90;;;;;;5120632;28;20051;-95
2021/03/10 05:10:35;;;;;;;35.05;16.50;;;3.60;99.90;;;;;;5103858;28;20066;-94
2021/03/10 05:13:04;;;;;;;34.10;15.60;;;3.60;99.90;;;;;;5103297;28;20066;-95
2021/03/10 05:15:33;;;;;;;34.93;15.67;;;3.70;99.90;;;;;;5118837;28;20051;-94
2021/03/10 05:18:01;;;;;;;37.83;16.83;;;3.80;99.90;;;;;;5103489;28;20055;-93
2021/03/10 05:20:28;;;;;;;34.88;16.15;;;3.80;99.90;;;;;;5119177;28;20043;-94
2021/03/10 05:23:26;;;;;;;32.08;15.38;;;3.80;99.90;;;;;;5119703;28;20066;-95
2021/03/10 05:25:53;;;;;;;31.05;15.68;;;3.70;99.90;;;;;;5137685;28;20043;-95
2021/03/10 05:28:22;;;;;;;30.92;15.27;;;3.60;99.90;;;;;;5119914;27;20058;-95
2021/03/10 05:30:51;;;;;;;34.30;16.40;;;3.70;99.90;;;;;;5123084;27;20046;-95
2021/03/10 05:33:18;;;;;;;34.22;16.55;;;3.50;99.90;;;;;;5139029;27;20057;-95
2021/03/10 05:35:46;;;;;;;34.75;16.10;;;3.50;99.90;;;;;;5123361;27;20621;-95
2021/03/10 05:38:15;;;;;;;49.22;17.90;;;3.50;99.90;;;;;;5140610;27;20050;-93
2021/03/10 05:40:43;;;;;;;38.07;18.13;;;3.50;99.90;;;;;;5131959;27;20057;-95
2021/03/10 05:43:13;;;;;;;42.53;19.88;;;3.50;99.90;;;;;;5129701;27;20041;-93
2021/03/10 05:45:42;;;;;;;34.65;16.73;;;3.50;99.90;;;;;;5122737;28;20376;-94
2021/03/10 05:48:12;;;;;;;34.83;15.97;;;3.50;99.90;;;;;;5104780;28;20047;-93
2021/03/10 05:50:39;;;;;;;41.55;16.60;;;3.50;99.90;;;;;;5110207;27;20054;-94
2021/03/10 05:53:11;;;;;;;34.17;16.25;;;3.60;99.90;;;;;;5130803;28;20051;-94
2021/03/10 05:55:40;;;;;;;36.95;16.40;;;3.60;99.90;;;;;;5086372;28;20349;-94
2021/03/10 05:58:12;;;;;;;34.72;16.65;;;3.60;99.90;;;;;;5119919;28;20050;-94
2021/03/10 06:00:45;;;;;;;32.25;15.63;;;3.60;99.90;;;;;;5107112;28;20384;-94
2021/03/10 06:03:14;;;;;;;32.45;15.15;;;3.60;99.90;;;;;;5103638;28;20077;-93
2021/03/10 06:05:45;;;;;;;31.77;15.63;;;3.70;99.90;;;;;;5103013;28;20078;-91
2021/03/10 06:08:15;;;;;;;29.77;14.27;;;3.80;99.90;;;;;;5138137;28;20051;-94
2021/03/10 06:10:45;;;;;;;28.15;14.00;;;3.80;99.90;;;;;;5103399;28;20058;-94
2021/03/10 06:13:19;;;;;;;30.73;15.60;;;3.70;99.90;;;;;;5107354;28;20055;-93
2021/03/10 06:15:49;;;;;;;33.15;15.60;;;3.80;99.90;;;;;;5104839;28;20074;-92
2021/03/10 06:18:25;;;;;;;28.92;15.50;;;3.90;99.90;;;;;;5119353;28;20047;-94
2021/03/10 06:21:06;;;;;;;31.58;15.52;;;3.90;99.90;;;;;;5085366;28;20059;-94
2021/03/10 06:23:35;;;;;;;33.97;16.98;;;4.00;99.90;;;;;;5099607;27;20391;-93
2021/03/10 06:26:03;;;;;;;;;;;3.80;99.90;;;;;;5106240;27;20047;-95
2021/03/10 06:28:38;;;;;;;38.97;15.45;;;3.80;99.90;;;;;;5122628;27;19927;-92
2021/03/10 06:31:17;;;;;;;33.75;16.75;;;3.80;99.90;;;;;;5105327;27;20069;-94
2021/03/10 06:33:50;;;;;;;38.63;15.45;;;3.90;99.90;;;;;;5122516;27;20055;-94
2021/03/10 06:36:24;;;;;;;30.50;15.00;;;4.00;99.90;;;;;;5122509;27;20062;-95
2021/03/10 06:38:52;;;;;;;35.45;15.10;;;4.20;99.90;;;;;;5122360;27;20444;-93
2021/03/10 06:41:33;;;;;;;31.52;15.45;;;4.40;99.90;;;;;;5107491;27;20046;-95
2021/03/10 06:44:01;;;;;;;;;;;4.40;99.90;;;;;;5106790;27;20054;-93
2021/03/10 06:46:31;;;;;;;33.07;15.83;;;4.40;99.90;;;;;;5106323;27;19919;-94
2021/03/10 06:49:01;;;;;;;34.20;15.53;;;4.40;99.90;;;;;;5105858;27;20046;-94
2021/03/10 06:51:32;;;;;;;29.88;15.27;;;4.40;99.90;;;;;;5107572;27;20058;-92
2021/03/10 06:53:59;;;;;;;31.77;15.17;;;4.50;99.90;;;;;;5122776;27;20065;-93
2021/03/10 06:56:28;;;;;;;30.95;15.05;;;4.60;99.90;;;;;;5105388;27;20054;-94
2021/03/10 06:59:00;;;;;;;32.83;15.10;;;4.60;99.90;;;;;;5106254;27;20047;-94
2021/03/10 07:01:39;;;;;;;34.03;16.38;;;4.60;99.90;;;;;;5106585;27;20054;-94
2021/03/10 07:04:09;;;;;;;37.67;15.43;;;4.70;99.90;;;;;;5123066;27;20475;-93
2021/03/10 07:06:41;;;;;;;43.95;24.17;;;4.70;99.90;;;;;;5118121;28;20471;-94
2021/03/10 07:09:13;;;;;;;46.97;16.65;;;4.70;99.90;;;;;;5119455;28;20048;-94
2021/03/10 07:11:42;;;;;;;31.88;15.88;;;5.00;99.90;;;;;;5103007;28;20502;-94
2021/03/10 07:14:11;;;;;;;34.30;16.35;;;4.90;99.90;;;;;;5120350;28;20051;-94
2021/03/10 07:16:39;;;;;;;31.23;15.85;;;4.90;99.90;;;;;;5102646;28;20055;-94
2021/03/10 07:19:09;;;;;;;32.83;15.80;;;5.10;99.90;;;;;;5119391;28;20058;-94
2021/03/10 07:21:50;;;;;;;30.63;15.57;;;5.20;99.90;;;;;;5120029;28;20044;-94
2021/03/10 07:24:23;;;;;;;35.22;15.80;;;5.20;99.90;;;;;;5090746;28;20043;-93
2021/03/10 07:26:55;;;;;;;28.55;15.15;;;5.20;99.90;;;;;;5122502;28;20051;-93
2021/03/10 07:29:25;;;;;;;27.88;15.88;;;5.30;99.90;;;;;;5106131;28;20051;-95
2021/03/10 07:31:59;;;;;;;30.25;16.15;;;5.40;99.90;;;;;;5106216;28;20062;-95
2021/03/10 07:34:30;;;;;;;31.35;15.70;;;5.40;99.90;;;;;;5090660;28;20058;-95
2021/03/10 07:37:00;;;;;;;37.72;16.35;;;5.40;99.90;;;;;;5089894;28;20048;-93
2021/03/10 07:42:24;;;;;;;43.50;17.08;;;5.50;99.90;;;;;;5092226;28;20058;-94
2021/03/10 07:44:59;;;;;;;32.00;16.10;;;5.60;99.90;;;;;;5100016;28;20476;-93
2021/03/10 07:47:27;;;;;;;33.20;16.00;;;5.90;99.90;;;;;;5113198;28;20074;-94
2021/03/10 07:50:01;;;;;;;29.42;15.63;;;5.90;99.90;;;;;;5129942;28;20067;-95
2021/03/10 07:52:33;;;;;;;32.38;16.77;;;6.00;99.90;;;;;;5113141;28;20055;-96
2021/03/10 07:55:03;;;;;;;34.63;17.02;;;6.00;99.90;;;;;;5115004;28;20056;-94
2021/03/10 07:57:31;;;;;;;27.48;15.57;;;6.00;99.90;;;;;;5131186;28;20073;-93
2021/03/10 08:00:02;;;;;;;35.72;15.75;;;6.00;99.90;;;;;;5128516;28;20063;-94
2021/03/10 08:02:43;;;;;;;31.15;16.33;;;6.00;99.90;;;;;;5125353;28;20464;-95
2021/03/10 08:05:25;;;;;;;33.28;16.73;;;6.00;99.90;;;;;;5127115;28;20062;-95
2021/03/10 08:08:07;;;;;;;37.70;16.83;;;6.10;99.90;;;;;;5095141;28;20055;-93
2021/03/10 08:10:36;;;;;;;31.98;16.67;;;6.20;99.90;;;;;;5112563;28;20039;-94
2021/03/10 08:13:15;;;;;;;38.15;17.50;;;6.20;99.90;;;;;;5126363;28;20053;-96
2021/03/10 08:15:43;;;;;;;34.25;16.20;;;6.30;99.90;;;;;;5090795;28;20126;-96
2021/03/10 08:18:13;;;;;;;30.52;16.10;;;6.40;99.90;;;;;;5133219;27;20438;-95
2021/03/10 08:20:42;;;;;;;33.20;17.13;;;6.40;99.90;;;;;;5121409;27;20058;-94
2021/03/10 08:23:10;;;;;;;40.10;19.33;;;6.40;99.90;;;;;;5114003;28;20051;-95
2021/03/10 08:25:38;;;;;;;39.03;17.58;;;6.40;99.90;;;;;;5123804;28;20358;-95
2021/03/10 08:28:17;;;;;;;35.47;17.17;;;6.60;99.90;;;;;;5105072;28;20059;-94
2021/03/10 08:30:45;;;;;;;;;;;6.80;99.90;;;;;;5105340;28;20056;-92
2021/03/10 08:33:15;;;;;;;35.45;16.13;;;7.00;99.90;;;;;;5105013;28;19919;-93
2021/03/10 08:35:51;;;;;;;33.22;17.15;;;7.30;99.90;;;;;;5126862;27;20371;-94
2021/03/10 08:38:19;;;;;;;43.33;18.25;;;7.50;99.90;;;;;;5126908;27;20055;-95
2021/03/10 08:40:47;;;;;;;35.75;17.02;;;7.80;99.90;;;;;;5118223;28;20043;-94
2021/03/10 08:43:27;;;;;;;37.55;17.17;;;8.00;99.90;;;;;;5119724;28;20047;-94
2021/03/10 08:45:56;;;;;;;29.90;16.63;;;8.10;99.90;;;;;;5122271;28;20047;-94
2021/03/10 08:48:25;;;;;;;32.65;17.50;;;8.20;99.90;;;;;;5104365;28;20052;-93
2021/03/10 08:50:54;;;;;;;34.70;16.98;;;8.30;99.90;;;;;;5106053;28;20039;-90
2021/03/10 08:53:28;;;;;;;31.73;17.40;;;8.40;99.90;;;;;;5105471;28;20057;-94
2021/03/10 08:56:05;;;;;;;35.47;18.08;;;8.50;99.90;;;;;;5104075;28;20052;-94
2021/03/10 08:58:35;;;;;;;38.80;17.40;;;8.70;99.90;;;;;;5122535;27;20062;-95
2021/03/10 09:01:16;;;;;;;37.88;19.58;;;9.00;99.90;;;;;;5108027;28;20031;-96
2021/03/10 09:03:45;;;;;;;31.80;17.55;;;9.40;98.70;;;;;;5113792;28;20048;-96
2021/03/10 09:06:22;;;;;;;30.67;16.50;;;9.30;98.20;;;;;;5107833;28;20079;-96
2021/03/10 09:08:52;;;;;;;36.92;17.55;;;9.60;97.40;;;;;;5102641;28;20468;-91
2021/03/10 09:11:20;;;;;;;34.90;18.02;;;9.80;96.70;;;;;;5082359;28;20048;-94
2021/03/10 09:13:48;;;;;;;32.65;17.33;;;9.90;94.50;;;;;;5086914;28;20059;-93
2021/03/10 09:16:24;;;;;;;33.00;17.35;;;9.90;95.10;;;;;;5118285;28;20059;-92
2021/03/10 09:19:13;;;;;;;29.13;16.67;;;9.90;93.90;;;;;;5116013;28;20051;-92
2021/03/10 09:22:08;;;;;;;32.63;16.45;;;10.00;93.60;;;;;;5118310;28;20461;-94
2021/03/10 09:24:55;;;;;;;34.15;18.23;;;9.50;94.30;;;;;;5101678;28;20055;-95
2021/03/10 09:27:27;;;;;;;33.93;16.97;;;9.20;94.70;;;;;;5104853;28;20035;-93
2021/03/10 09:30:27;;;;;;;31.48;17.70;;;9.00;95.20;;;;;;5114512;28;20051;-93
2021/03/10 09:32:55;;;;;;;43.53;17.83;;;8.90;95.30;;;;;;5108169;28;20056;-94
2021/03/10 09:35:31;;;;;;;35.35;16.80;;;8.70;96.30;;;;;;5123962;28;20051;-95
2021/03/10 09:38:03;;;;;;;33.22;16.98;;;8.60;97.00;;;;;;5103532;28;20055;-93
2021/03/10 09:40:39;;;;;;;31.55;16.15;;;8.20;97.90;;;;;;5113382;28;20040;-94
2021/03/10 09:43:10;;;;;;;29.83;15.90;;;8.10;99.20;;;;;;5123307;28;20040;-95
2021/03/10 09:45:40;;;;;;;39.45;17.15;;;7.80;99.90;;;;;;5111539;28;20109;-95
2021/03/10 09:48:12;;;;;;;37.85;18.17;;;7.60;99.90;;;;;;5106237;28;20407;-95
2021/03/10 09:50:50;;;;;;;29.73;15.65;;;7.50;99.90;;;;;;5120709;28;20052;-96
2021/03/10 09:53:26;;;;;;;34.50;17.38;;;7.60;99.90;;;;;;5109100;28;20711;-96
2021/03/10 09:56:07;;;;;;;39.05;17.05;;;7.50;99.90;;;;;;5122711;28;20487;-95
2021/03/10 09:58:49;;;;;;;32.42;16.17;;;7.60;99.90;;;;;;5104721;28;20059;-96
2021/03/10 10:01:19;;;;;;;30.27;16.13;;;7.50;99.90;;;;;;5122559;28;20060;-94
2021/03/10 10:03:53;;;;;;;35.38;16.88;;;7.40;99.90;;;;;;5105307;28;20058;-96
2021/03/10 10:06:29;;;;;;;31.20;16.42;;;7.10;99.90;;;;;;5104523;28;20052;-95
2021/03/10 10:09:05;;;;;;;39.05;17.05;;;7.00;99.90;;;;;;5122360;28;20043;-93
2021/03/10 10:11:37;;;;;;;30.38;16.23;;;6.90;99.90;;;;;;5126334;27;20051;-96
2021/03/10 10:14:10;;;;;;;31.83;16.52;;;6.90;99.90;;;;;;5102400;28;20048;-95
2021/03/10 10:16:39;;;;;;;30.75;17.05;;;6.90;99.90;;;;;;5129414;27;20051;-96
2021/03/10 10:19:15;;;;;;;38.25;17.88;;;7.00;99.90;;;;;;5106274;28;20373;-94
2021/03/10 10:21:47;;;;;;;;;;;7.40;99.90;;;;;;5110930;28;20058;-95
2021/03/10 10:24:15;;;;;;;28.20;15.30;;;7.90;99.90;;;;;;5114332;28;19920;-94
2021/03/10 10:26:43;;;;;;;31.42;15.60;;;8.60;99.90;;;;;;5115684;28;20132;-95
2021/03/10 10:29:21;;;;;;;30.48;15.88;;;9.20;98.80;;;;;;5111053;28;20063;-94
2021/03/10 10:31:54;;;;;;;29.30;15.10;;;9.90;94.50;;;;;;5107348;28;20044;-96
2021/03/10 10:34:25;;;;;;;30.17;15.90;;;9.60;92.60;;;;;;5106055;27;20063;-96
2021/03/10 10:36:58;;;;;;;27.30;15.27;;;9.10;96.20;;;;;;5097897;28;20055;-96
2021/03/10 10:39:40;;;;;;;27.63;16.33;;;9.80;93.80;;;;;;5094794;28;20280;-95
2021/03/10 10:42:19;;;;;;;;;;;9.60;93.10;;;;;;5115243;28;20052;-95
2021/03/10 10:44:49;;;;;;;29.42;14.82;;;9.10;93.60;;;;;;5108445;28;19931;-95
2021/03/10 10:47:22;;;;;;;33.05;16.85;;;10.00;94.30;;;;;;5105433;28;20052;-94
2021/03/10 10:49:52;;;;;;;32.03;16.58;;;10.80;87.80;;;;;;5105052;28;20078;-95
2021/03/10 10:52:21;;;;;;;26.55;13.52;;;11.10;83.70;;;;;;5104431;28;20066;-96
2021/03/10 10:54:51;;;;;;;33.70;16.42;;;10.70;80.50;;;;;;5098638;28;20051;-95
2021/03/10 10:57:21;;;;;;;37.97;16.25;;;11.40;81.40;;;;;;5104297;28;20047;-93
2021/03/10 10:59:56;;;;;;;26.27;14.95;;;12.30;74.90;;;;;;5105973;28;20047;-95
2021/03/10 11:02:26;;;;;;;31.73;15.93;;;12.70;69.80;;;;;;5104616;28;20044;-91
2021/03/10 11:05:14;;;;;;;27.45;15.40;;;13.00;68.50;;;;;;5104099;28;20055;-94
2021/03/10 11:07:44;;;;;;;27.88;15.10;;;12.50;68.50;;;;;;5100596;28;20048;-91
2021/03/10 11:10:14;;;;;;;29.85;15.82;;;12.50;66.60;;;;;;5103374;28;20055;-93
2021/03/10 11:12:52;;;;;;;28.58;15.48;;;12.80;65.50;;;;;;5103770;28;20062;-91
2021/03/10 11:15:29;;;;;;;27.00;15.88;;;12.80;66.10;;;;;;5105518;28;20058;-91
2021/03/10 11:18:27;;;;;;;30.45;16.40;;;12.70;65.40;;;;;;5121316;28;20062;-92
2021/03/10 11:20:55;;;;;;;34.53;15.45;;;13.10;65.20;;;;;;5086619;28;20051;-91
2021/03/10 11:23:23;;;;;;;28.52;16.20;;;14.00;62.10;;;;;;5096313;28;20048;-89
2021/03/10 11:25:53;;;;;;;27.83;15.55;;;14.70;59.00;;;;;;5086526;28;20062;-91
2021/03/10 11:28:21;;;;;;;28.35;13.90;;;14.00;58.20;;;;;;5102752;28;20059;-96
2021/03/10 11:30:51;;;;;;;24.30;14.27;;;13.10;59.50;;;;;;5106736;28;20055;-94
2021/03/10 11:33:21;;;;;;;26.58;15.02;;;12.30;62.10;;;;;;5127335;28;20062;-91
2021/03/10 11:35:52;;;;;;;28.20;15.77;;;12.20;63.70;;;;;;5112152;28;20051;-91
2021/03/10 11:38:21;;;;;;;28.48;15.60;;;12.20;64.30;;;;;;5110850;28;20051;-93
2021/03/10 11:40:57;;;;;;;31.85;16.73;;;12.20;64.60;;;;;;5123547;28;20048;-95
2021/03/10 11:43:27;;;;;;;30.33;16.25;;;11.40;65.80;;;;;;5104980;28;20062;-95
2021/03/10 11:45:56;;;;;;;30.50;15.45;;;10.70;70.50;;;;;;5108412;28;20058;-90
2021/03/10 11:48:23;;;;;;;25.70;14.75;;;11.80;69.30;;;;;;5103449;28;20043;-92
2021/03/10 11:50:53;;;;;;;33.50;14.60;;;13.20;65.50;;;;;;5118483;28;20052;-90
2021/03/10 11:53:21;;;;;;;29.48;14.80;;;14.60;58.80;;;;;;5088154;28;20063;-92
2021/03/10 11:55:49;;;;;;;25.77;14.63;;;15.00;54.90;;;;;;5123519;28;20051;-95
2021/03/10 11:58:22;;;;;;;24.27;13.67;;;14.00;55.30;;;;;;5101679;28;20052;-94
2021/03/10 12:00:50;;;;;;;25.15;15.15;;;12.60;58.90;;;;;;5116850;28;20062;-94
2021/03/10 12:03:26;;;;;;;23.48;14.25;;;12.70;60.30;;;;;;5095047;28;20062;-93
2021/03/10 12:06:07;;;;;;;24.98;15.07;;;13.80;57.30;;;;;;5103851;27;20063;-93
2021/03/10 12:08:58;;;;;;;30.92;16.33;;;14.40;55.40;;;;;;5106474;27;20062;-90
2021/03/10 12:11:28;;;;;;;23.63;13.23;;;15.40;53.90;;;;;;5076732;27;20047;-89
2021/03/10 12:14:01;;;;;;;20.83;13.15;;;17.10;51.80;;;;;;5121249;27;20050;-91
2021/03/10 12:16:31;;;;;;;22.70;15.43;;;18.60;46.20;;;;;;5105562;27;20062;-88
2021/03/10 12:19:00;;;;;;;22.90;14.02;;;19.10;43.10;;;;;;5104628;27;20604;-89
2021/03/10 12:21:35;;;;;;;22.63;14.27;;;19.70;41.10;;;;;;5089432;27;20054;-89
2021/03/10 12:24:08;;;;;;;22.27;13.65;;;19.10;41.30;;;;;;5104690;27;20074;-89
2021/03/10 12:26:37;;;;;;;26.90;13.85;;;19.20;41.00;;;;;;5104488;27;20047;-89
2021/03/10 12:29:14;;;;;;;21.02;13.77;;;18.80;40.90;;;;;;5109564;27;20053;-87
2021/03/10 12:31:43;;;;;;;20.83;13.85;;;18.80;40.90;;;;;;5102912;27;20043;-92
2021/03/10 12:34:12;;;;;;;22.95;14.55;;;17.20;41.80;;;;;;5113355;27;20043;-90
2021/03/10 12:36:42;;;;;;;23.73;15.98;;;16.70;43.30;;;;;;5113173;27;20050;-90
2021/03/10 12:39:10;;;;;;;30.77;16.67;;;16.30;44.60;;;;;;5104915;27;20054;-87
2021/03/10 12:41:40;;;;;;;24.02;16.02;;;15.40;46.30;;;;;;5119284;27;20047;-87
2021/03/10 12:44:09;;;;;;;23.75;14.73;;;15.20;46.20;;;;;;5088190;27;20054;-88
2021/03/10 12:46:36;;;;;;;31.65;17.38;;;15.20;46.20;;;;;;5103227;27;20055;-87
2021/03/10 12:49:05;;;;;;;28.10;17.17;;;15.50;45.90;;;;;;5090457;27;20464;-92
2021/03/10 12:51:41;;;;;;;31.88;16.88;;;13.80;48.80;;;;;;5121781;27;20051;-91
2021/03/10 12:54:11;;;;;;;28.00;16.42;;;12.40;52.20;;;;;;5106063;27;20406;-92
2021/03/10 12:56:38;;;;;;;29.50;16.55;;;11.90;53.30;;;;;;5106113;27;20058;-88
2021/03/10 12:59:06;;;;;;;27.35;16.65;;;12.50;53.50;;;;;;5105266;27;20062;-91
2021/03/10 13:01:37;;;;;;;26.75;15.18;;;12.40;53.20;;;;;;5088767;28;20480;-91